sensor_id;sensor_type;location;lat;lon;timestamp;pressure;altitude;pressure_sealevel;temperature;humidity
46129;BME280;31860;45.186;5.790;2024-02-28T00:02:21;98622.63;;;13.92;100.00
46129;BME280;31860;45.186;5.790;2024-02-28T00:04:47;98633.06;;;13.93;100.00
46129;BME280;31860;45.186;5.790;2024-02-28T00:07:12;98637.50;;;13.93;100.00
46129;BME280;31860;45.186;5.790;2024-02-28T00:09:37;98635.69;;;13.93;100.00
46129;BME280;31860;45.186;5.790;2024-02-28T00:12:03;98636.63;;;13.92;100.00
46129;BME280;31860;45.186;5.790;2024-02-28T00:14:28;98642.78;;;13.91;100.00
46129;BME280;31860;45.186;5.790;2024-02-28T00:16:53;98644.50;;;13.92;100.00
46129;BME280;31860;45.186;5.790;2024-02-28T00:19:19;98648.91;;;13.90;100.00
46129;BME280;31860;45.186;5.790;2024-02-28T00:21:45;98649.78;;;13.91;100.00
46129;BME280;31860;45.186;5.790;2024-02-28T00:24:11;98657.66;;;13.91;100.00
46129;BME280;31860;45.186;5.790;2024-02-28T00:26:40;98662.00;;;13.92;100.00
46129;BME280;31860;45.186;5.790;2024-02-28T00:29:05;98654.13;;;13.92;100.00
46129;BME280;31860;45.186;5.790;2024-02-28T00:31:30;98648.00;;;13.93;100.00
46129;BME280;31860;45.186;5.790;2024-02-28T00:33:56;98659.34;;;13.93;100.00
46129;BME280;31860;45.186;5.790;2024-02-28T00:36:21;98668.97;;;13.94;100.00
46129;BME280;31860;45.186;5.790;2024-02-28T00:38:46;98675.97;;;13.94;100.00
46129;BME280;31860;45.186;5.790;2024-02-28T00:41:12;98675.09;;;13.93;100.00
46129;BME280;31860;45.186;5.790;2024-02-28T00:43:37;98675.97;;;13.94;100.00
46129;BME280;31860;45.186;5.790;2024-02-28T00:46:02;98672.44;;;13.95;100.00
46129;BME280;31860;45.186;5.790;2024-02-28T00:48:28;98686.47;;;13.94;100.00
46129;BME280;31860;45.186;5.790;2024-02-28T00:50:54;98685.59;;;13.95;100.00
46129;BME280;31860;45.186;5.790;2024-02-28T00:53:20;98691.66;;;13.95;100.00
46129;BME280;31860;45.186;5.790;2024-02-28T00:55:45;98693.47;;;13.95;100.00
46129;BME280;31860;45.186;5.790;2024-02-28T00:58:11;98688.16;;;13.96;100.00
46129;BME280;31860;45.186;5.790;2024-02-28T01:00:36;98688.25;;;13.92;100.00
46129;BME280;31860;45.186;5.790;2024-02-28T01:03:01;98690.00;;;13.93;100.00
46129;BME280;31860;45.186;5.790;2024-02-28T01:05:30;98690.97;;;13.89;100.00
46129;BME280;31860;45.186;5.790;2024-02-28T01:07:56;98696.25;;;13.87;100.00
46129;BME280;31860;45.186;5.790;2024-02-28T01:10:21;98705.91;;;13.85;100.00
46129;BME280;31860;45.186;5.790;2024-02-28T01:12:47;98711.19;;;13.84;100.00
46129;BME280;31860;45.186;5.790;2024-02-28T01:15:12;98704.22;;;13.83;100.00
46129;BME280;31860;45.186;5.790;2024-02-28T01:17:38;98701.63;;;13.81;100.00
46129;BME280;31860;45.186;5.790;2024-02-28T01:20:05;98716.50;;;13.81;100.00
46129;BME280;31860;45.186;5.790;2024-02-28T01:22:30;98716.50;;;13.81;100.00
46129;BME280;31860;45.186;5.790;2024-02-28T01:24:55;98711.31;;;13.78;100.00
46129;BME280;31860;45.186;5.790;2024-02-28T01:27:21;98718.28;;;13.79;100.00
46129;BME280;31860;45.186;5.790;2024-02-28T01:29:46;98721.00;;;13.76;100.00
46129;BME280;31860;45.186;5.790;2024-02-28T01:32:11;98723.66;;;13.73;100.00
46129;BME280;31860;45.186;5.790;2024-02-28T01:34:37;98725.44;;;13.71;100.00
46129;BME280;31860;45.186;5.790;2024-02-28T01:37:02;98727.22;;;13.70;100.00
46129;BME280;31860;45.186;5.790;2024-02-28T01:39:27;98726.44;;;13.65;100.00
46129;BME280;31860;45.186;5.790;2024-02-28T01:41:53;98730.84;;;13.63;100.00
46129;BME280;31860;45.186;5.790;2024-02-28T01:44:20;98723.03;;;13.60;100.00
46129;BME280;31860;45.186;5.790;2024-02-28T01:46:46;98732.66;;;13.60;100.00
46129;BME280;31860;45.186;5.790;2024-02-28T01:49:11;98737.16;;;13.55;100.00
46129;BME280;31860;45.186;5.790;2024-02-28T01:51:37;98741.50;;;13.56;100.00
46129;BME280;31860;45.186;5.790;2024-02-28T01:54:02;98743.34;;;13.51;100.00
46129;BME280;31860;45.186;5.790;2024-02-28T01:56:28;98743.41;;;13.48;100.00
46129;BME280;31860;45.186;5.790;2024-02-28T01:58:54;98746.13;;;13.43;100.00
46129;BME280;31860;45.186;5.790;2024-02-28T02:01:19;98743.63;;;13.36;100.00
46129;BME280;31860;45.186;5.790;2024-02-28T02:03:45;98747.25;;;13.30;100.00
46129;BME280;31860;45.186;5.790;2024-02-28T02:06:10;98748.16;;;13.29;100.00
46129;BME280;31860;45.186;5.790;2024-02-28T02:08:37;98749.94;;;13.25;100.00
46129;BME280;31860;45.186;5.790;2024-02-28T02:11:03;98751.75;;;13.23;100.00
46129;BME280;31860;45.186;5.790;2024-02-28T02:13:28;98756.16;;;13.21;100.00
46129;BME280;31860;45.186;5.790;2024-02-28T02:15:54;98757.03;;;13.20;100.00
46129;BME280;31860;45.186;5.790;2024-02-28T02:18:19;98749.22;;;13.17;100.00
46129;BME280;31860;45.186;5.790;2024-02-28T02:20:49;98746.59;;;13.17;100.00
46129;BME280;31860;45.186;5.790;2024-02-28T02:23:15;98763.22;;;13.16;100.00
46129;BME280;31860;45.186;5.790;2024-02-28T02:25:48;98752.72;;;13.16;100.00
46129;BME280;31860;45.186;5.790;2024-02-28T02:28:14;98756.25;;;13.15;100.00
46129;BME280;31860;45.186;5.790;2024-02-28T02:30:40;98753.63;;;13.15;100.00
46129;BME280;31860;45.186;5.790;2024-02-28T02:33:07;98752.78;;;13.13;100.00
46129;BME280;31860;45.186;5.790;2024-02-28T02:35:33;98751.91;;;13.13;100.00
46129;BME280;31860;45.186;5.790;2024-02-28T02:37:58;98753.66;;;13.12;100.00
46129;BME280;31860;45.186;5.790;2024-02-28T02:40:24;98754.56;;;13.11;100.00
46129;BME280;31860;45.186;5.790;2024-02-28T02:42:49;98759.78;;;13.13;100.00
46129;BME280;31860;45.186;5.790;2024-02-28T02:45:16;98760.66;;;13.13;100.00
46129;BME280;31860;45.186;5.790;2024-02-28T02:47:41;98753.66;;;13.12;100.00
46129;BME280;31860;45.186;5.790;2024-02-28T02:50:09;98766.72;;;13.17;100.00
46129;BME280;31860;45.186;5.790;2024-02-28T02:52:34;98771.06;;;13.16;100.00
46129;BME280;31860;45.186;5.790;2024-02-28T02:54:59;98781.59;;;13.15;100.00
46129;BME280;31860;45.186;5.790;2024-02-28T02:57:24;98783.31;;;13.17;100.00
46129;BME280;31860;45.186;5.790;2024-02-28T02:59:50;98785.09;;;13.15;100.00
46129;BME280;31860;45.186;5.790;2024-02-28T03:02:15;98783.34;;;13.14;100.00
46129;BME280;31860;45.186;5.790;2024-02-28T03:04:40;98788.59;;;13.16;100.00
46129;BME280;31860;45.186;5.790;2024-02-28T03:07:06;98786.81;;;13.16;100.00
46129;BME280;31860;45.186;5.790;2024-02-28T03:09:31;98793.78;;;13.19;100.00
46129;BME280;31860;45.186;5.790;2024-02-28T03:11:56;98798.13;;;13.18;100.00
46129;BME280;31860;45.186;5.790;2024-02-28T03:14:22;98799.88;;;13.19;100.00
46129;BME280;31860;45.186;5.790;2024-02-28T03:16:47;98798.13;;;13.18;100.00
46129;BME280;31860;45.186;5.790;2024-02-28T03:19:14;98800.75;;;13.18;100.00
46129;BME280;31860;45.186;5.790;2024-02-28T03:21:40;98803.38;;;13.18;100.00
46129;BME280;31860;45.186;5.790;2024-02-28T03:24:06;98806.84;;;13.20;100.00
46129;BME280;31860;45.186;5.790;2024-02-28T03:26:31;98812.09;;;13.20;100.00
46129;BME280;31860;45.186;5.790;2024-02-28T03:28:57;98816.44;;;13.23;100.00
46129;BME280;31860;45.186;5.790;2024-02-28T03:31:22;98819.91;;;13.25;100.00
46129;BME280;31860;45.186;5.790;2024-02-28T03:33:47;98817.31;;;13.23;100.00
46129;BME280;31860;45.186;5.790;2024-02-28T03:36:13;98812.06;;;13.23;100.00
46129;BME280;31860;45.186;5.790;2024-02-28T03:38:38;98823.41;;;13.24;100.00
46129;BME280;31860;45.186;5.790;2024-02-28T03:41:04;98822.56;;;13.23;100.00
46129;BME280;31860;45.186;5.790;2024-02-28T03:43:30;98827.81;;;13.22;100.00
46129;BME280;31860;45.186;5.790;2024-02-28T03:45:56;98830.41;;;13.22;100.00
46129;BME280;31860;45.186;5.790;2024-02-28T03:48:21;98825.25;;;13.19;100.00
46129;BME280;31860;45.186;5.790;2024-02-28T03:50:47;98829.66;;;13.17;100.00
46129;BME280;31860;45.186;5.790;2024-02-28T03:53:12;98830.66;;;13.10;100.00
46129;BME280;31860;45.186;5.790;2024-02-28T03:55:37;98836.78;;;13.07;100.00
46129;BME280;31860;45.186;5.790;2024-02-28T03:58:03;98843.81;;;13.05;100.00
46129;BME280;31860;45.186;5.790;2024-02-28T04:00:28;98842.09;;;13.01;100.00
46129;BME280;31860;45.186;5.790;2024-02-28T04:02:53;98844.81;;;12.95;100.00
46129;BME280;31860;45.186;5.790;2024-02-28T04:05:19;98852.69;;;12.94;100.00
46129;BME280;31860;45.186;5.790;2024-02-28T04:07:44;98849.22;;;12.93;100.00
46129;BME280;31860;45.186;5.790;2024-02-28T04:10:09;98858.81;;;12.94;100.00
46129;BME280;31860;45.186;5.790;2024-02-28T04:12:37;98854.50;;;12.90;100.00
46129;BME280;31860;45.186;5.790;2024-02-28T04:15:03;98857.13;;;12.90;100.00
46129;BME280;31860;45.186;5.790;2024-02-28T04:17:28;98855.44;;;12.86;100.00
46129;BME280;31860;45.186;5.790;2024-02-28T04:19:53;98854.59;;;12.86;100.00
46129;BME280;31860;45.186;5.790;2024-02-28T04:22:19;98865.06;;;12.84;100.00
46129;BME280;31860;45.186;5.790;2024-02-28T04:24:44;98876.47;;;12.82;100.00
46129;BME280;31860;45.186;5.790;2024-02-28T04:27:09;98869.44;;;12.85;100.00
46129;BME280;31860;45.186;5.790;2024-02-28T04:29:36;98872.00;;;12.88;100.00
46129;BME280;31860;45.186;5.790;2024-02-28T04:32:02;98870.28;;;12.87;100.00
46129;BME280;31860;45.186;5.790;2024-02-28T04:34:27;98851.13;;;12.84;100.00
46129;BME280;31860;45.186;5.790;2024-02-28T04:36:52;98849.34;;;12.84;100.00
46129;BME280;31860;45.186;5.790;2024-02-28T04:39:18;98864.16;;;12.87;100.00
46129;BME280;31860;45.186;5.790;2024-02-28T04:41:43;98867.69;;;12.84;100.00
46129;BME280;31860;45.186;5.790;2024-02-28T04:44:08;98860.75;;;12.82;100.00
46129;BME280;31860;45.186;5.790;2024-02-28T04:46:34;98865.19;;;12.78;100.00
46129;BME280;31860;45.186;5.790;2024-02-28T04:48:59;98869.50;;;12.79;100.00
46129;BME280;31860;45.186;5.790;2024-02-28T04:51:25;98870.41;;;12.77;100.00
46129;BME280;31860;45.186;5.790;2024-02-28T04:53:50;98873.03;;;12.78;100.00
46129;BME280;31860;45.186;5.790;2024-02-28T04:56:15;98873.91;;;12.77;100.00
46129;BME280;31860;45.186;5.790;2024-02-28T04:58:41;98884.41;;;12.77;100.00
46129;BME280;31860;45.186;5.790;2024-02-28T05:01:06;98881.78;;;12.77;100.00
46129;BME280;31860;45.186;5.790;2024-02-28T05:03:31;98899.22;;;12.80;100.00
46129;BME280;31860;45.186;5.790;2024-02-28T05:05:57;98898.41;;;12.76;100.00
46129;BME280;31860;45.186;5.790;2024-02-28T05:08:22;98899.25;;;12.78;100.00
46129;BME280;31860;45.186;5.790;2024-02-28T05:10:49;98914.09;;;12.78;100.00
46129;BME280;31860;45.186;5.790;2024-02-28T05:13:15;98912.38;;;12.75;100.00
46129;BME280;31860;45.186;5.790;2024-02-28T05:15:41;98924.63;;;12.73;100.00
46129;BME280;31860;45.186;5.790;2024-02-28T05:18:06;98920.22;;;12.77;100.00
46129;BME280;31860;45.186;5.790;2024-02-28T05:20:31;98928.91;;;12.79;100.00
46129;BME280;31860;45.186;5.790;2024-02-28T05:22:57;98926.31;;;12.77;100.00
46129;BME280;31860;45.186;5.790;2024-02-28T05:25:22;98939.47;;;12.76;100.00
46129;BME280;31860;45.186;5.790;2024-02-28T05:27:47;98946.50;;;12.69;100.00
46129;BME280;31860;45.186;5.790;2024-02-28T05:30:13;98931.72;;;12.65;100.00
46129;BME280;31860;45.186;5.790;2024-02-28T05:32:38;98941.31;;;12.66;100.00
46129;BME280;31860;45.186;5.790;2024-02-28T05:35:04;98950.97;;;12.63;100.00
46129;BME280;31860;45.186;5.790;2024-02-28T05:37:29;98955.34;;;12.62;100.00
46129;BME280;31860;45.186;5.790;2024-02-28T05:39:55;98948.34;;;12.63;100.00
46129;BME280;31860;45.186;5.790;2024-02-28T05:42:20;98946.59;;;12.62;100.00
46129;BME280;31860;45.186;5.790;2024-02-28T05:44:49;98954.44;;;12.65;100.00
46129;BME280;31860;45.186;5.790;2024-02-28T05:47:15;98952.72;;;12.62;100.00
46129;BME280;31860;45.186;5.790;2024-02-28T05:49:40;98951.03;;;12.58;100.00
46129;BME280;31860;45.186;5.790;2024-02-28T05:52:05;98942.34;;;12.55;100.00
46129;BME280;31860;45.186;5.790;2024-02-28T05:54:31;98946.69;;;12.54;100.00
46129;BME280;31860;45.186;5.790;2024-02-28T05:56:56;98951.06;;;12.55;100.00
46129;BME280;31860;45.186;5.790;2024-02-28T05:59:22;98963.28;;;12.56;100.00
46129;BME280;31860;45.186;5.790;2024-02-28T06:01:47;98958.03;;;12.56;100.00
46129;BME280;31860;45.186;5.790;2024-02-28T06:04:12;98960.66;;;12.56;100.00
46129;BME280;31860;45.186;5.790;2024-02-28T06:06:38;98968.56;;;12.50;100.00
46129;BME280;31860;45.186;5.790;2024-02-28T06:09:03;98967.78;;;12.44;100.00
46129;BME280;31860;45.186;5.790;2024-02-28T06:11:29;98975.66;;;12.44;100.00
46129;BME280;31860;45.186;5.790;2024-02-28T06:13:54;98983.53;;;12.42;100.00
46129;BME280;31860;45.186;5.790;2024-02-28T06:16:19;98983.50;;;12.45;100.00
46129;BME280;31860;45.186;5.790;2024-02-28T06:18:45;98988.75;;;12.44;100.00
46129;BME280;31860;45.186;5.790;2024-02-28T06:21:10;98996.63;;;12.42;100.00
46129;BME280;31860;45.186;5.790;2024-02-28T06:23:36;99000.97;;;12.43;100.00
46129;BME280;31860;45.186;5.790;2024-02-28T06:26:01;99004.50;;;12.42;100.00
46129;BME280;31860;45.186;5.790;2024-02-28T06:28:26;99000.97;;;12.43;100.00
46129;BME280;31860;45.186;5.790;2024-02-28T06:30:52;99002.72;;;12.44;100.00
46129;BME280;31860;45.186;5.790;2024-02-28T06:33:17;99012.38;;;12.37;100.00
46129;BME280;31860;45.186;5.790;2024-02-28T06:35:44;99008.88;;;12.40;100.00
46129;BME280;31860;45.186;5.790;2024-02-28T06:38:09;99030.69;;;12.42;100.00
46129;BME280;31860;45.186;5.790;2024-02-28T06:40:34;99026.31;;;12.41;100.00
46129;BME280;31860;45.186;5.790;2024-02-28T06:43:00;99023.69;;;12.41;100.00
46129;BME280;31860;45.186;5.790;2024-02-28T06:45:26;99032.44;;;12.40;100.00
46129;BME280;31860;45.186;5.790;2024-02-28T06:47:51;99033.28;;;12.44;100.00
46129;BME280;31860;45.186;5.790;2024-02-28T06:50:16;99030.69;;;12.42;100.00
46129;BME280;31860;45.186;5.790;2024-02-28T06:52:42;99029.81;;;12.42;100.00
46129;BME280;31860;45.186;5.790;2024-02-28T06:55:08;99029.81;;;12.40;100.00
46129;BME280;31860;45.186;5.790;2024-02-28T06:57:40;99040.34;;;12.35;100.00
46129;BME280;31860;45.186;5.790;2024-02-28T07:00:07;99037.72;;;12.35;100.00
46129;BME280;31860;45.186;5.790;2024-02-28T07:02:44;99049.09;;;12.33;100.00
46129;BME280;31860;45.186;5.790;2024-02-28T07:05:10;99043.88;;;12.30;100.00
46129;BME280;31860;45.186;5.790;2024-02-28T07:07:35;99049.13;;;12.30;100.00
46129;BME280;31860;45.186;5.790;2024-02-28T07:10:04;99052.63;;;12.30;100.00
46129;BME280;31860;45.186;5.790;2024-02-28T07:12:30;99054.38;;;12.28;100.00
46129;BME280;31860;45.186;5.790;2024-02-28T07:14:55;99055.25;;;12.26;100.00
46129;BME280;31860;45.186;5.790;2024-02-28T07:17:21;99052.63;;;12.29;100.00
46129;BME280;31860;45.186;5.790;2024-02-28T07:19:46;99062.25;;;12.28;100.00
46129;BME280;31860;45.186;5.790;2024-02-28T07:22:11;99057.03;;;12.24;100.00
46129;BME280;31860;45.186;5.790;2024-02-28T07:24:36;99064.84;;;12.28;100.00
46129;BME280;31860;45.186;5.790;2024-02-28T07:27:02;99067.53;;;12.22;100.00
46129;BME280;31860;45.186;5.790;2024-02-28T07:29:28;99068.41;;;12.23;100.00
46129;BME280;31860;45.186;5.790;2024-02-28T07:31:53;99062.25;;;12.24;100.00
46129;BME280;31860;45.186;5.790;2024-02-28T07:34:19;99078.84;;;12.24;100.00
46129;BME280;31860;45.186;5.790;2024-02-28T07:36:44;99077.16;;;12.19;100.00
46129;BME280;31860;45.186;5.790;2024-02-28T07:39:09;99077.13;;;12.22;100.00
46129;BME280;31860;45.186;5.790;2024-02-28T07:41:38;99081.50;;;12.20;100.00
46129;BME280;31860;45.186;5.790;2024-02-28T07:44:03;99078.91;;;12.17;100.00
46129;BME280;31860;45.186;5.790;2024-02-28T07:46:29;99082.41;;;12.17;100.00
46129;BME280;31860;45.186;5.790;2024-02-28T07:48:54;99082.44;;;12.16;100.00
46129;BME280;31860;45.186;5.790;2024-02-28T07:51:20;99089.38;;;12.17;100.00
46129;BME280;31860;45.186;5.790;2024-02-28T07:53:45;99092.84;;;12.20;100.00
46129;BME280;31860;45.186;5.790;2024-02-28T07:56:18;99091.94;;;12.24;100.00
46129;BME280;31860;45.186;5.790;2024-02-28T07:58:44;99097.19;;;12.24;100.00
46129;BME280;31860;45.186;5.790;2024-02-28T08:01:10;99098.91;;;12.27;100.00
46129;BME280;31860;45.186;5.790;2024-02-28T08:03:36;99105.03;;;12.24;100.00
46129;BME280;31860;45.186;5.790;2024-02-28T08:06:01;99115.50;;;12.24;100.00
46129;BME280;31860;45.186;5.790;2024-02-28T08:08:27;99112.03;;;12.25;100.00
46129;BME280;31860;45.186;5.790;2024-02-28T08:10:52;99118.16;;;12.20;100.00
46129;BME280;31860;45.186;5.790;2024-02-28T08:13:18;99116.41;;;12.20;100.00
46129;BME280;31860;45.186;5.790;2024-02-28T08:15:44;99126.03;;;12.17;100.00
46129;BME280;31860;45.186;5.790;2024-02-28T08:18:09;99127.81;;;12.15;100.00
46129;BME280;31860;45.186;5.790;2024-02-28T08:20:37;99123.50;;;12.08;100.00
46129;BME280;31860;45.186;5.790;2024-02-28T08:23:03;99126.13;;;12.08;100.00
46129;BME280;31860;45.186;5.790;2024-02-28T08:25:28;99125.25;;;12.07;100.00
46129;BME280;31860;45.186;5.790;2024-02-28T08:27:54;99132.22;;;12.08;100.00
46129;BME280;31860;45.186;5.790;2024-02-28T08:30:19;99127.84;;;12.09;100.00
46129;BME280;31860;45.186;5.790;2024-02-28T08:32:44;99135.72;;;12.06;100.00
46129;BME280;31860;45.186;5.790;2024-02-28T08:35:10;99133.13;;;12.06;100.00
46129;BME280;31860;45.186;5.790;2024-02-28T08:37:38;99142.69;;;12.07;100.00
46129;BME280;31860;45.186;5.790;2024-02-28T08:40:06;99146.19;;;12.07;100.00
46129;BME280;31860;45.186;5.790;2024-02-28T08:42:32;99142.69;;;12.10;100.00
46129;BME280;31860;45.186;5.790;2024-02-28T08:44:57;99146.16;;;12.09;100.00
46129;BME280;31860;45.186;5.790;2024-02-28T08:47:25;99145.31;;;12.07;100.00
46129;BME280;31860;45.186;5.790;2024-02-28T08:49:51;99151.41;;;12.10;100.00
46129;BME280;31860;45.186;5.790;2024-02-28T08:52:16;99145.31;;;12.07;100.00
46129;BME280;31860;45.186;5.790;2024-02-28T08:54:42;99143.59;;;12.01;100.00
46129;BME280;31860;45.186;5.790;2024-02-28T08:57:07;99154.09;;;12.00;100.00
46129;BME280;31860;45.186;5.790;2024-02-28T08:59:32;99153.22;;;11.98;100.00
46129;BME280;31860;45.186;5.790;2024-02-28T09:01:58;99157.63;;;11.94;100.00
46129;BME280;31860;45.186;5.790;2024-02-28T09:04:23;99165.47;;;11.96;100.00
46129;BME280;31860;45.186;5.790;2024-02-28T09:06:48;99165.50;;;11.93;100.00
46129;BME280;31860;45.186;5.790;2024-02-28T09:09:14;99178.53;;;11.97;100.00
46129;BME280;31860;45.186;5.790;2024-02-28T09:11:39;99177.69;;;11.97;100.00
46129;BME280;31860;45.186;5.790;2024-02-28T09:14:04;99174.16;;;11.98;100.00
46129;BME280;31860;45.186;5.790;2024-02-28T09:16:30;99180.28;;;11.98;100.00
46129;BME280;31860;45.186;5.790;2024-02-28T09:18:55;99182.06;;;11.93;100.00
46129;BME280;31860;45.186;5.790;2024-02-28T09:21:20;99182.91;;;11.94;100.00
46129;BME280;31860;45.186;5.790;2024-02-28T09:23:46;99199.50;;;11.94;100.00
46129;BME280;31860;45.186;5.790;2024-02-28T09:26:11;99182.06;;;11.92;100.00
46129;BME280;31860;45.186;5.790;2024-02-28T09:28:36;99192.53;;;11.92;100.00
46129;BME280;31860;45.186;5.790;2024-02-28T09:31:02;99184.66;;;11.92;100.00
46129;BME280;31860;45.186;5.790;2024-02-28T09:33:29;99199.53;;;11.88;100.00
46129;BME280;31860;45.186;5.790;2024-02-28T09:35:54;99184.72;;;11.86;100.00
46129;BME280;31860;45.186;5.790;2024-02-28T09:38:19;99195.22;;;11.80;100.00
46129;BME280;31860;45.186;5.790;2024-02-28T09:40:48;99197.84;;;11.77;100.00
46129;BME280;31860;45.186;5.790;2024-02-28T09:43:28;99195.22;;;11.77;100.00
46129;BME280;31860;45.186;5.790;2024-02-28T09:45:59;99209.19;;;11.76;100.00
46129;BME280;31860;45.186;5.790;2024-02-28T09:48:27;99212.66;;;11.78;100.00
46129;BME280;31860;45.186;5.790;2024-02-28T09:50:54;99210.06;;;11.78;100.00
46129;BME280;31860;45.186;5.790;2024-02-28T09:53:20;99214.44;;;11.71;100.00
46129;BME280;31860;45.186;5.790;2024-02-28T09:55:47;99224.91;;;11.73;100.00
46129;BME280;31860;45.186;5.790;2024-02-28T09:58:14;99220.56;;;11.66;100.00
46129;BME280;31860;45.186;5.790;2024-02-28T10:00:40;99220.56;;;11.66;100.00
46129;BME280;31860;45.186;5.790;2024-02-28T10:03:11;99232.75;;;11.64;100.00
46129;BME280;31860;45.186;5.790;2024-02-28T10:05:37;99234.50;;;11.59;100.00
46129;BME280;31860;45.186;5.790;2024-02-28T10:08:05;99230.16;;;11.56;100.00
46129;BME280;31860;45.186;5.790;2024-02-28T10:10:30;99227.56;;;11.52;100.00
46129;BME280;31860;45.186;5.790;2024-02-28T10:12:56;99242.38;;;11.51;100.00
46129;BME280;31860;45.186;5.790;2024-02-28T10:15:21;99238.91;;;11.54;100.00
46129;BME280;31860;45.186;5.790;2024-02-28T10:17:47;99242.38;;;11.53;100.00
46129;BME280;31860;45.186;5.790;2024-02-28T10:20:13;99231.03;;;11.51;100.00
46129;BME280;31860;45.186;5.790;2024-02-28T10:22:39;99238.03;;;11.53;100.00
46129;BME280;31860;45.186;5.790;2024-02-28T10:25:05;99242.38;;;11.54;100.00
46129;BME280;31860;45.186;5.790;2024-02-28T10:27:34;99252.84;;;11.46;100.00
46129;BME280;31860;45.186;5.790;2024-02-28T10:30:00;99258.94;;;11.48;100.00
46129;BME280;31860;45.186;5.790;2024-02-28T10:32:32;99258.09;;;11.45;100.00
46129;BME280;31860;45.186;5.790;2024-02-28T10:35:00;99263.34;;;11.42;100.00
46129;BME280;31860;45.186;5.790;2024-02-28T10:37:28;99261.59;;;11.41;100.00
46129;BME280;31860;45.186;5.790;2024-02-28T10:39:57;99261.63;;;11.36;100.00
46129;BME280;31860;45.186;5.790;2024-02-28T10:42:23;99265.97;;;11.36;100.00
46129;BME280;31860;45.186;5.790;2024-02-28T10:44:52;99278.16;;;11.35;100.00
46129;BME280;31860;45.186;5.790;2024-02-28T10:47:17;99287.75;;;11.38;100.00
46129;BME280;31860;45.186;5.790;2024-02-28T10:49:43;99265.06;;;11.37;100.00
46129;BME280;31860;45.186;5.790;2024-02-28T10:52:12;99272.06;;;11.36;100.00
46129;BME280;31860;45.186;5.790;2024-02-28T10:54:40;99268.56;;;11.31;100.00
46129;BME280;31860;45.186;5.790;2024-02-28T10:57:07;99279.94;;;11.30;100.00
46129;BME280;31860;45.186;5.790;2024-02-28T10:59:34;99277.28;;;11.33;100.00
46129;BME280;31860;45.186;5.790;2024-02-28T11:02:01;99282.53;;;11.29;100.00
46129;BME280;31860;45.186;5.790;2024-02-28T11:04:27;99277.31;;;11.32;100.00
46129;BME280;31860;45.186;5.790;2024-02-28T11:06:55;99284.28;;;11.30;100.00
46129;BME280;31860;45.186;5.790;2024-02-28T11:09:25;99290.38;;;11.29;100.00
46129;BME280;31860;45.186;5.790;2024-02-28T11:11:51;99283.41;;;11.25;100.00
46129;BME280;31860;45.186;5.790;2024-02-28T11:14:17;99290.38;;;11.29;100.00
46129;BME280;31860;45.186;5.790;2024-02-28T11:16:46;99296.50;;;11.31;100.00
46129;BME280;31860;45.186;5.790;2024-02-28T11:19:21;99286.88;;;11.31;100.00
46129;BME280;31860;45.186;5.790;2024-02-28T11:21:53;99294.75;;;11.34;100.00
46129;BME280;31860;45.186;5.790;2024-02-28T11:24:23;99300.84;;;11.36;100.00
46129;BME280;31860;45.186;5.790;2024-02-28T11:26:49;99298.22;;;11.35;100.00
46129;BME280;31860;45.186;5.790;2024-02-28T11:29:16;99291.22;;;11.37;100.00
46129;BME280;31860;45.186;5.790;2024-02-28T11:31:41;99299.09;;;11.34;100.00
46129;BME280;31860;45.186;5.790;2024-02-28T11:34:06;99294.75;;;11.33;100.00
46129;BME280;31860;45.186;5.790;2024-02-28T11:36:32;99296.47;;;11.28;100.00
46129;BME280;31860;45.186;5.790;2024-02-28T11:38:57;99298.25;;;11.29;100.00
46129;BME280;31860;45.186;5.790;2024-02-28T11:41:26;99300.84;;;11.27;100.00
46129;BME280;31860;45.186;5.790;2024-02-28T11:43:52;99302.59;;;11.28;100.00
46129;BME280;31860;45.186;5.790;2024-02-28T11:46:18;99303.47;;;11.30;100.00
46129;BME280;31860;45.186;5.790;2024-02-28T11:48:43;99315.63;;;11.31;100.00
46129;BME280;31860;45.186;5.790;2024-02-28T11:51:09;99306.94;;;11.31;100.00
46129;BME280;31860;45.186;5.790;2024-02-28T11:53:35;99311.31;;;11.29;100.00
46129;BME280;31860;45.186;5.790;2024-02-28T11:56:00;99307.81;;;11.28;100.00
46129;BME280;31860;45.186;5.790;2024-02-28T11:58:25;99308.69;;;11.26;100.00
46129;BME280;31860;45.186;5.790;2024-02-28T12:00:51;99308.69;;;11.27;100.00
46129;BME280;31860;45.186;5.790;2024-02-28T12:03:23;99306.94;;;11.25;100.00
46129;BME280;31860;45.186;5.790;2024-02-28T12:05:49;99303.44;;;11.26;100.00
46129;BME280;31860;45.186;5.790;2024-02-28T12:08:17;99303.47;;;11.23;100.00
46129;BME280;31860;45.186;5.790;2024-02-28T12:10:43;99310.41;;;11.24;100.00
46129;BME280;31860;45.186;5.790;2024-02-28T12:13:08;99307.81;;;11.22;100.00
46129;BME280;31860;45.186;5.790;2024-02-28T12:15:34;99308.69;;;11.21;100.00
46129;BME280;31860;45.186;5.790;2024-02-28T12:17:59;99303.47;;;11.23;100.00
46129;BME280;31860;45.186;5.790;2024-02-28T12:20:25;99309.56;;;11.25;100.00
46129;BME280;31860;45.186;5.790;2024-02-28T12:22:50;99310.44;;;11.22;100.00
46129;BME280;31860;45.186;5.790;2024-02-28T12:25:16;99312.16;;;11.22;100.00
46129;BME280;31860;45.186;5.790;2024-02-28T12:27:41;99315.66;;;11.19;100.00
46129;BME280;31860;45.186;5.790;2024-02-28T12:30:07;99324.38;;;11.15;100.00
46129;BME280;31860;45.186;5.790;2024-02-28T12:32:33;99316.53;;;11.15;100.00
46129;BME280;31860;45.186;5.790;2024-02-28T12:34:58;99324.38;;;11.15;100.00
46129;BME280;31860;45.186;5.790;2024-02-28T12:37:23;99328.75;;;11.18;100.00
46129;BME280;31860;45.186;5.790;2024-02-28T12:39:49;99334.81;;;11.18;100.00
46129;BME280;31860;45.186;5.790;2024-02-28T12:42:16;99320.91;;;11.18;100.00
46129;BME280;31860;45.186;5.790;2024-02-28T12:44:42;99328.75;;;11.19;100.00